createdAt,value
2019-02-22T00:01:01.729Z,1029.86
2019-02-22T00:02:11.702Z,1029.83
2019-02-22T00:03:20.901Z,1029.84
2019-02-22T00:04:30.086Z,1029.86
2019-02-22T00:05:40.028Z,1029.87
2019-02-22T00:06:49.733Z,1029.87
2019-02-22T00:07:59.181Z,1029.87
2019-02-22T00:09:08.869Z,1029.93
2019-02-22T00:10:18.583Z,1029.91
2019-02-22T00:11:28.620Z,1029.94
2019-02-22T00:12:38.571Z,1029.98
2019-02-22T00:13:48.017Z,1030
2019-02-22T00:14:57.222Z,1030.04
2019-02-22T00:16:06.668Z,1029.99
2019-02-22T00:17:15.874Z,1029.99
2019-02-22T00:18:25.318Z,1030.01
2019-02-22T00:19:34.524Z,1030.02
2019-02-22T00:20:44.223Z,1029.99
2019-02-22T00:21:53.669Z,1030.02
2019-02-22T00:23:03.610Z,1030.08
2019-02-22T00:24:13.314Z,1030.08
2019-02-22T00:25:22.764Z,1030.08
2019-02-22T00:26:32.456Z,1030.09
2019-02-22T00:27:42.403Z,1030.15
2019-02-22T00:28:52.356Z,1030.14
2019-02-22T00:30:02.047Z,1030.11
2019-02-22T00:31:12.026Z,1030.17
2019-02-22T00:32:21.717Z,1030.16
2019-02-22T00:33:31.431Z,1030.18
2019-02-22T00:34:40.897Z,1030.17
2019-02-22T00:35:51.068Z,1030.17
2019-02-22T00:37:00.741Z,1030.18
2019-02-22T00:38:11.173Z,1030.18
2019-02-22T00:39:21.125Z,1030.16
2019-02-22T00:40:30.822Z,1030.14
2019-02-22T00:41:40.010Z,1030.15
2019-02-22T00:42:50.400Z,1030.13
2019-02-22T00:43:59.701Z,1030.15
2019-02-22T00:45:09.400Z,1030.21
2019-02-22T00:46:19.146Z,1030.25
2019-02-22T00:47:28.839Z,1030.29
2019-02-22T00:48:38.318Z,1030.32
2019-02-22T00:49:48.014Z,1030.36
2019-02-22T00:50:57.447Z,1030.33
2019-02-22T00:52:06.647Z,1030.39
2019-02-22T00:53:16.351Z,1030.47
2019-02-22T00:54:26.284Z,1030.48
2019-02-22T00:55:35.991Z,1030.51
2019-02-22T00:56:45.935Z,1030.51
2019-02-22T00:57:55.431Z,1030.56
2019-02-22T00:59:05.122Z,1030.62
2019-02-22T01:00:14.570Z,1030.66
2019-02-22T01:01:24.346Z,1030.65
2019-02-22T01:02:34.045Z,1030.62
2019-02-22T01:03:43.746Z,1030.62
2019-02-22T01:04:53.202Z,1030.66
2019-02-22T01:06:02.405Z,1030.61
2019-02-22T01:07:12.348Z,1030.59
2019-02-22T01:08:21.784Z,1030.56
2019-02-22T01:09:31.470Z,1030.54
2019-02-22T01:10:41.418Z,1030.6
2019-02-22T01:11:56.632Z,1030.62
2019-02-22T01:13:06.324Z,1030.57
2019-02-22T01:14:16.019Z,1030.64
2019-02-22T01:15:25.459Z,1030.64
2019-02-22T01:16:35.410Z,1030.69
2019-02-22T01:17:44.851Z,1030.72
2019-02-22T01:18:54.547Z,1030.72
2019-02-22T01:20:04.575Z,1030.76
2019-02-22T01:21:14.533Z,1030.72
2019-02-22T01:22:24.483Z,1030.74
2019-02-22T01:23:34.278Z,1030.76
2019-02-22T01:24:43.731Z,1030.72
2019-02-22T01:25:53.695Z,1030.71
2019-02-22T01:27:03.397Z,1030.73
2019-02-22T01:28:13.339Z,1030.8
2019-02-22T01:29:23.040Z,1030.76
2019-02-22T01:30:32.996Z,1030.78
2019-02-22T01:31:42.699Z,1030.87
2019-02-22T01:32:52.682Z,1030.85
2019-02-22T01:34:02.717Z,1030.83
2019-02-22T01:35:12.478Z,1030.81
2019-02-22T01:36:22.224Z,1030.87
2019-02-22T01:37:31.672Z,1030.89
2019-02-22T01:38:41.117Z,1030.95
2019-02-22T01:39:50.807Z,1030.99
2019-02-22T01:41:00.843Z,1030.95
2019-02-22T01:42:10.301Z,1030.96
2019-02-22T01:43:20.236Z,1030.89
2019-02-22T01:44:30.187Z,1030.89
2019-02-22T01:45:40.154Z,1030.86
2019-02-22T01:46:49.849Z,1030.86
2019-02-22T01:47:59.787Z,1030.93
2019-02-22T01:49:09.729Z,1030.91
2019-02-22T01:50:19.170Z,1030.97
2019-02-22T01:51:28.869Z,1030.9
2019-02-22T01:52:38.316Z,1030.9
2019-02-22T01:53:48.004Z,1030.93
2019-02-22T01:54:59.404Z,1030.93
2019-02-22T01:56:09.109Z,1030.91
2019-02-22T01:57:18.569Z,1030.92
2019-02-22T01:58:28.564Z,1030.96
2019-02-22T01:59:48.744Z,1031.02
2019-02-22T02:00:58.682Z,1031.02
2019-02-22T02:02:08.407Z,1031.06
2019-02-22T02:03:17.874Z,1031.12
2019-02-22T02:04:27.828Z,1031.15
2019-02-22T02:05:37.774Z,1031.08
2019-02-22T02:06:47.470Z,1031.13
2019-02-22T02:07:56.923Z,1031.14
2019-02-22T02:09:05.864Z,1031.16
2019-02-22T02:10:15.810Z,1031.21
2019-02-22T02:11:24.998Z,1031.19
2019-02-22T02:12:34.447Z,1031.2
2019-02-22T02:13:44.462Z,1031.22
2019-02-22T02:14:53.913Z,1031.21
2019-02-22T02:16:03.596Z,1031.26
2019-02-22T02:17:13.292Z,1031.27
2019-02-22T02:18:25.424Z,1031.31
2019-02-22T02:19:35.385Z,1031.29
2019-02-22T02:20:45.091Z,1031.36
2019-02-22T02:21:55.197Z,1031.37
2019-02-22T02:23:05.215Z,1031.38
2019-02-22T02:24:14.917Z,1031.4
2019-02-22T02:25:24.875Z,1031.42
2019-02-22T02:26:34.569Z,1031.45
2019-02-22T02:27:44.273Z,1031.4
2019-02-22T02:28:53.978Z,1031.39
2019-02-22T02:30:03.929Z,1031.48
2019-02-22T02:31:13.959Z,1031.49
2019-02-22T02:32:23.948Z,1031.45
2019-02-22T02:33:33.647Z,1031.47
2019-02-22T02:34:43.335Z,1031.5
2019-02-22T02:35:53.298Z,1031.52
2019-02-22T02:37:02.739Z,1031.47
2019-02-22T02:38:12.698Z,1031.45
2019-02-22T02:39:22.648Z,1031.49
2019-02-22T02:40:32.596Z,1031.41
2019-02-22T02:41:42.397Z,1031.39
2019-02-22T02:42:52.389Z,1031.37
2019-02-22T02:44:02.376Z,1031.38
2019-02-22T02:45:12.455Z,1031.4
2019-02-22T02:46:22.169Z,1031.34
2019-02-22T02:47:32.115Z,1031.38
2019-02-22T02:48:41.819Z,1031.44
2019-02-22T02:49:51.763Z,1031.41
2019-02-22T02:51:01.454Z,1031.43
2019-02-22T02:52:11.395Z,1031.41
2019-02-22T02:53:21.359Z,1031.4
2019-02-22T02:54:31.343Z,1031.45
2019-02-22T02:55:41.035Z,1031.39
2019-02-22T02:56:50.742Z,1031.4
2019-02-22T02:58:00.727Z,1031.36
2019-02-22T02:59:10.174Z,1031.43
2019-02-22T03:00:19.880Z,1031.42
2019-02-22T03:01:29.845Z,1031.39
2019-02-22T03:02:39.802Z,1031.43
2019-02-22T03:03:49.277Z,1031.41
2019-02-22T03:04:59.247Z,1031.44
2019-02-22T03:06:08.766Z,1031.43
2019-02-22T03:07:18.472Z,1031.36
2019-02-22T03:08:28.168Z,1031.4
2019-02-22T03:09:37.877Z,1031.43
2019-02-22T03:10:47.591Z,1031.41
2019-02-22T03:11:57.307Z,1031.37
2019-02-22T03:13:06.794Z,1031.43
2019-02-22T03:14:16.266Z,1031.39
2019-02-22T03:15:25.777Z,1031.39
2019-02-22T03:16:35.223Z,1031.39
2019-02-22T03:17:44.666Z,1031.39
2019-02-22T03:18:54.608Z,1031.46
2019-02-22T03:20:04.318Z,1031.49
2019-02-22T03:21:14.039Z,1031.47
2019-02-22T03:22:23.763Z,1031.48
2019-02-22T03:23:33.474Z,1031.49
2019-02-22T03:24:43.428Z,1031.48
2019-02-22T03:25:56.231Z,1031.51
2019-02-22T03:27:06.193Z,1031.55
2019-02-22T03:28:16.215Z,1031.59
2019-02-22T03:29:26.160Z,1031.65
2019-02-22T03:30:35.606Z,1031.62
2019-02-22T03:31:45.641Z,1031.64
2019-02-22T03:32:55.652Z,1031.67
2019-02-22T03:34:05.627Z,1031.7
2019-02-22T03:35:15.444Z,1031.71
2019-02-22T03:36:25.140Z,1031.68
2019-02-22T03:37:34.855Z,1031.69
2019-02-22T03:38:44.800Z,1031.68
2019-02-22T03:39:54.756Z,1031.73
2019-02-22T03:41:04.450Z,1031.72
2019-02-22T03:42:14.171Z,1031.74
2019-02-22T03:43:24.107Z,1031.8
2019-02-22T03:44:33.804Z,1031.8
2019-02-22T03:45:43.517Z,1031.78
2019-02-22T03:46:53.222Z,1031.8
2019-02-22T03:48:03.184Z,1031.85
2019-02-22T03:49:12.903Z,1031.84
2019-02-22T03:50:22.687Z,1031.82
2019-02-22T03:51:32.135Z,1031.84
2019-02-22T03:52:41.341Z,1031.79
2019-02-22T03:53:51.281Z,1031.83
2019-02-22T03:55:02.892Z,1031.85
2019-02-22T03:56:12.620Z,1031.84
2019-02-22T03:57:22.587Z,1031.88
2019-02-22T03:58:32.554Z,1031.9
2019-02-22T03:59:42.259Z,1031.94
2019-02-22T04:00:53.894Z,1031.94
2019-02-22T04:02:03.876Z,1031.91
2019-02-22T04:03:13.588Z,1031.9
2019-02-22T04:04:23.552Z,1031.96
2019-02-22T04:05:33.536Z,1032.15
2019-02-22T04:06:43.495Z,1032.23
2019-02-22T04:07:53.187Z,1032.18
2019-02-22T04:09:02.898Z,1032.21
2019-02-22T04:10:12.911Z,1032.27
2019-02-22T04:11:22.872Z,1032.26
2019-02-22T04:12:45.393Z,1032.32
2019-02-22T04:13:55.162Z,1032.34
2019-02-22T04:15:04.856Z,1032.31
2019-02-22T04:16:14.578Z,1032.4
2019-02-22T04:17:24.593Z,1032.43
2019-02-22T04:18:34.073Z,1032.48
2019-02-22T04:19:44.022Z,1032.57
2019-02-22T04:20:53.966Z,1032.56
2019-02-22T04:22:03.925Z,1032.64
2019-02-22T04:23:13.888Z,1032.69
2019-02-22T04:24:23.953Z,1032.7
2019-02-22T04:25:33.664Z,1032.75
2019-02-22T04:26:43.672Z,1032.82
2019-02-22T04:27:53.388Z,1032.85
2019-02-22T04:29:02.874Z,1032.85
2019-02-22T04:30:12.334Z,1032.93
2019-02-22T04:31:22.032Z,1032.92
2019-02-22T04:32:32.039Z,1032.93
2019-02-22T04:33:41.524Z,1032.9
2019-02-22T04:34:51.497Z,1032.9
2019-02-22T04:36:01.469Z,1032.92
2019-02-22T04:37:11.473Z,1032.9
2019-02-22T04:38:21.444Z,1032.92
2019-02-22T04:39:30.642Z,1032.93
2019-02-22T04:40:40.603Z,1032.92
2019-02-22T04:41:57.908Z,1032.93
2019-02-22T04:43:07.986Z,1032.91
2019-02-22T04:44:17.690Z,1032.93
2019-02-22T04:45:27.391Z,1032.92
2019-02-22T04:46:37.344Z,1032.98
2019-02-22T04:47:47.370Z,1033
2019-02-22T04:48:57.309Z,1033.04
2019-02-22T04:50:07.193Z,1033.04
2019-02-22T04:51:16.633Z,1033.08
2019-02-22T04:52:26.599Z,1033.07
2019-02-22T04:53:36.064Z,1033.08
2019-02-22T04:54:46.005Z,1033.11
2019-02-22T04:55:55.724Z,1033.12
2019-02-22T04:57:05.227Z,1033.13
2019-02-22T04:58:15.045Z,1033.2
2019-02-22T04:59:25.003Z,1033.15
2019-02-22T05:00:34.712Z,1033.21
2019-02-22T05:01:44.681Z,1033.24
2019-02-22T05:02:54.735Z,1033.22
2019-02-22T05:04:04.687Z,1033.22
2019-02-22T05:05:14.376Z,1033.22
2019-02-22T05:06:24.078Z,1033.24
2019-02-22T05:07:34.021Z,1033.29
2019-02-22T05:08:43.985Z,1033.29
2019-02-22T05:09:53.681Z,1033.22
2019-02-22T05:11:03.374Z,1033.31
2019-02-22T05:12:13.071Z,1033.33
2019-02-22T05:13:23.008Z,1033.37
2019-02-22T05:14:32.720Z,1033.38
2019-02-22T05:15:42.676Z,1033.44
2019-02-22T05:16:52.360Z,1033.41
2019-02-22T05:18:02.336Z,1033.42
2019-02-22T05:19:12.277Z,1033.46
2019-02-22T05:20:22.219Z,1033.43
2019-02-22T05:21:31.997Z,1033.37
2019-02-22T05:22:41.699Z,1033.39
2019-02-22T05:24:03.591Z,1033.39
2019-02-22T05:25:13.533Z,1033.43
2019-02-22T05:26:23.234Z,1033.44
2019-02-22T05:27:32.927Z,1033.42
2019-02-22T05:28:42.632Z,1033.43
2019-02-22T05:29:52.569Z,1033.46
2019-02-22T05:31:02.038Z,1033.44
2019-02-22T05:32:11.795Z,1033.47
2019-02-22T05:33:21.236Z,1033.59
2019-02-22T05:34:30.968Z,1033.67
2019-02-22T05:35:40.681Z,1033.67
2019-02-22T05:36:50.642Z,1033.67
2019-02-22T05:38:00.597Z,1033.71
2019-02-22T05:39:18.800Z,1033.67
2019-02-22T05:40:29.177Z,1033.66
2019-02-22T05:41:38.625Z,1033.63
2019-02-22T05:42:48.331Z,1033.64
2019-02-22T05:43:58.138Z,1033.62
2019-02-22T05:45:08.107Z,1033.7
2019-02-22T05:46:18.119Z,1033.69
2019-02-22T05:47:27.809Z,1033.73
2019-02-22T05:48:38.846Z,1033.83
2019-02-22T05:49:48.695Z,1033.76
2019-02-22T05:50:58.684Z,1033.76
2019-02-22T05:52:08.422Z,1033.73
2019-02-22T05:53:18.497Z,1033.81
2019-02-22T05:54:28.448Z,1033.8
2019-02-22T05:55:38.157Z,1033.84
2019-02-22T05:56:49.579Z,1033.83
2019-02-22T05:58:02.398Z,1033.89
2019-02-22T05:59:12.400Z,1033.92
2019-02-22T06:00:22.143Z,1033.89
2019-02-22T06:01:32.176Z,1033.87
2019-02-22T06:02:42.151Z,1033.82
2019-02-22T06:03:51.632Z,1033.84
2019-02-22T06:05:01.572Z,1033.92
2019-02-22T06:06:10.798Z,1033.92
2019-02-22T06:07:20.522Z,1033.97
2019-02-22T06:08:30.595Z,1034
2019-02-22T06:09:40.322Z,1033.99
2019-02-22T06:10:50.027Z,1034.01
2019-02-22T06:11:59.990Z,1034.01
2019-02-22T06:13:09.700Z,1034.12
2019-02-22T06:14:19.410Z,1034.13
2019-02-22T06:15:31.369Z,1034.14
2019-02-22T06:16:41.479Z,1034.14
2019-02-22T06:17:51.207Z,1034.2
2019-02-22T06:19:01.157Z,1034.26
2019-02-22T06:20:11.140Z,1034.37
2019-02-22T06:21:20.859Z,1034.36
2019-02-22T06:22:30.316Z,1034.27
2019-02-22T06:23:40.013Z,1034.24
2019-02-22T06:24:50.052Z,1034.25
2019-02-22T06:25:59.521Z,1034.26
2019-02-22T06:27:09.336Z,1034.37
2019-02-22T06:28:19.024Z,1034.47
2019-02-22T06:29:28.713Z,1034.53
2019-02-22T06:30:38.241Z,1034.57
2019-02-22T06:31:48.562Z,1034.53
2019-02-22T06:32:58.203Z,1034.53
2019-02-22T06:34:07.399Z,1034.52
2019-02-22T06:35:17.116Z,1034.6
2019-02-22T06:36:26.569Z,1034.53
2019-02-22T06:37:36.022Z,1034.59
2019-02-22T06:38:46.768Z,1034.62
2019-02-22T06:39:56.801Z,1034.69
2019-02-22T06:41:06.511Z,1034.69
2019-02-22T06:42:16.483Z,1034.71
2019-02-22T06:43:26.171Z,1034.68
2019-02-22T06:44:35.886Z,1034.7
2019-02-22T06:45:45.580Z,1034.73
2019-02-22T06:46:54.929Z,1034.74
2019-02-22T06:48:04.703Z,1034.75
2019-02-22T06:49:14.404Z,1034.8
2019-02-22T06:50:33.039Z,1034.82
2019-02-22T06:51:43.422Z,1034.82
2019-02-22T06:52:53.248Z,1034.8
2019-02-22T06:54:02.947Z,1034.78
2019-02-22T06:55:12.672Z,1034.77
2019-02-22T06:56:24.242Z,1034.81
2019-02-22T06:57:34.447Z,1034.84
2019-02-22T06:58:44.386Z,1034.86
2019-02-22T06:59:54.622Z,1034.86
2019-02-22T07:01:04.350Z,1034.93
2019-02-22T07:02:14.293Z,1034.94
2019-02-22T07:03:24.002Z,1034.94
2019-02-22T07:04:33.970Z,1034.97
2019-02-22T07:05:43.501Z,1034.95
2019-02-22T07:06:53.195Z,1034.97
2019-02-22T07:08:02.709Z,1034.98
2019-02-22T07:09:12.158Z,1035.02
2019-02-22T07:10:21.847Z,1035.04
2019-02-22T07:11:31.546Z,1035.05
2019-02-22T07:12:43.185Z,1035.11
2019-02-22T07:14:03.784Z,1035.08
2019-02-22T07:15:13.480Z,1035.09
2019-02-22T07:16:23.186Z,1035.11
2019-02-22T07:17:33.135Z,1035.14
2019-02-22T07:18:42.322Z,1035.13
2019-02-22T07:19:52.839Z,1035.14
2019-02-22T07:21:02.788Z,1035.12
2019-02-22T07:22:12.504Z,1035.2
2019-02-22T07:23:22.194Z,1035.22
2019-02-22T07:24:31.643Z,1035.24
2019-02-22T07:25:41.366Z,1035.22
2019-02-22T07:26:51.074Z,1035.25
2019-02-22T07:28:00.264Z,1035.28
2019-02-22T07:29:09.467Z,1035.28
2019-02-22T07:30:19.163Z,1035.26
2019-02-22T07:31:28.871Z,1035.27
2019-02-22T07:32:38.915Z,1035.25
2019-02-22T07:33:49.232Z,1035.3
2019-02-22T07:34:58.923Z,1035.34
2019-02-22T07:36:10.408Z,1035.36
2019-02-22T07:37:20.398Z,1035.43
2019-02-22T07:38:30.346Z,1035.47
2019-02-22T07:39:40.038Z,1035.49
2019-02-22T07:40:49.982Z,1035.51
2019-02-22T07:41:59.177Z,1035.52
2019-02-22T07:43:08.882Z,1035.58
2019-02-22T07:44:18.578Z,1035.62
2019-02-22T07:45:28.517Z,1035.65
2019-02-22T07:46:37.965Z,1035.68
2019-02-22T07:47:47.420Z,1035.7
2019-02-22T07:48:57.122Z,1035.7
2019-02-22T07:50:06.895Z,1035.75
2019-02-22T07:51:16.888Z,1035.72
2019-02-22T07:52:26.582Z,1035.75
2019-02-22T07:53:36.289Z,1035.74
2019-02-22T07:54:46.240Z,1035.78
2019-02-22T07:55:55.441Z,1035.79
2019-02-22T07:57:05.288Z,1035.81
2019-02-22T07:58:15.232Z,1035.88
2019-02-22T07:59:24.779Z,1035.87
2019-02-22T08:00:34.770Z,1035.9
2019-02-22T08:01:47.605Z,1035.92
2019-02-22T08:02:58.088Z,1035.91
2019-02-22T08:04:07.525Z,1035.94
2019-02-22T08:05:17.247Z,1035.95
2019-02-22T08:06:26.984Z,1035.93
2019-02-22T08:07:36.960Z,1035.98
2019-02-22T08:08:47.906Z,1036.04
2019-02-22T08:09:57.906Z,1036
2019-02-22T08:11:07.425Z,1036.03
2019-02-22T08:12:17.389Z,1036.06
2019-02-22T08:13:27.345Z,1036.09
2019-02-22T08:14:36.556Z,1036.18
2019-02-22T08:15:46.253Z,1036.17
2019-02-22T08:16:55.955Z,1036.22
2019-02-22T08:18:05.909Z,1036.18
2019-02-22T08:19:15.342Z,1036.18
2019-02-22T08:20:25.034Z,1036.2
2019-02-22T08:21:34.727Z,1036.19
2019-02-22T08:22:44.673Z,1036.26
2019-02-22T08:23:54.377Z,1036.3
2019-02-22T08:25:04.346Z,1036.3
2019-02-22T08:26:14.031Z,1036.33
2019-02-22T08:27:23.741Z,1036.29
2019-02-22T08:28:33.687Z,1036.34
2019-02-22T08:29:43.131Z,1036.39
2019-02-22T08:30:52.844Z,1036.39
2019-02-22T08:32:02.324Z,1036.38
2019-02-22T08:33:12.052Z,1036.4
2019-02-22T08:34:21.752Z,1036.43
2019-02-22T08:35:31.728Z,1036.43
2019-02-22T08:36:41.423Z,1036.43
2019-02-22T08:37:51.119Z,1036.47
2019-02-22T08:39:00.668Z,1036.48
2019-02-22T08:40:10.604Z,1036.52
2019-02-22T08:41:20.109Z,1036.49
2019-02-22T08:42:29.826Z,1036.53
2019-02-22T08:43:39.040Z,1036.56
2019-02-22T08:44:48.961Z,1036.55
2019-02-22T08:45:58.902Z,1036.59
2019-02-22T08:47:08.857Z,1036.65
2019-02-22T08:48:18.310Z,1036.7
2019-02-22T08:49:28.246Z,1036.68
2019-02-22T08:50:37.757Z,1036.7
2019-02-22T08:51:47.457Z,1036.65
2019-02-22T08:52:57.399Z,1036.69
2019-02-22T08:54:07.116Z,1036.7
2019-02-22T08:55:17.074Z,1036.69
2019-02-22T08:56:26.536Z,1036.65
2019-02-22T08:57:36.502Z,1036.74
2019-02-22T08:58:45.952Z,1036.77
2019-02-22T08:59:55.640Z,1036.85
2019-02-22T09:01:05.117Z,1036.86
2019-02-22T09:02:14.821Z,1036.83
2019-02-22T09:03:24.275Z,1036.85
2019-02-22T09:04:33.482Z,1036.87
2019-02-22T09:05:43.210Z,1036.89
2019-02-22T09:06:53.356Z,1036.89
2019-02-22T09:08:02.798Z,1036.86
2019-02-22T09:09:12.738Z,1036.85
2019-02-22T09:10:22.787Z,1036.84
2019-02-22T09:11:32.241Z,1036.89
2019-02-22T09:12:42.187Z,1036.87
2019-02-22T09:13:52.360Z,1036.9
2019-02-22T09:15:01.802Z,1036.93
2019-02-22T09:16:11.749Z,1037.01
2019-02-22T09:17:21.682Z,1036.99
2019-02-22T09:18:31.375Z,1037.03
2019-02-22T09:19:40.871Z,1037.04
2019-02-22T09:20:50.566Z,1037.07
2019-02-22T09:22:00.264Z,1037.04
2019-02-22T09:23:10.246Z,1037.07
2019-02-22T09:24:19.954Z,1037.14
2019-02-22T09:25:29.919Z,1037.18
2019-02-22T09:26:39.629Z,1037.19
2019-02-22T09:27:49.617Z,1037.18
2019-02-22T09:28:59.341Z,1037.24
2019-02-22T09:30:09.283Z,1037.26
2019-02-22T09:31:18.730Z,1037.23
2019-02-22T09:32:28.423Z,1037.33
2019-02-22T09:33:38.264Z,1037.35
2019-02-22T09:34:48.491Z,1037.38
2019-02-22T09:35:58.203Z,1037.41
2019-02-22T09:37:07.920Z,1037.45
2019-02-22T09:38:17.616Z,1037.5
2019-02-22T09:39:27.309Z,1037.52
2019-02-22T09:40:37.360Z,1037.55
2019-02-22T09:41:47.321Z,1037.57
2019-02-22T09:42:57.293Z,1037.64
2019-02-22T09:44:06.987Z,1037.65
2019-02-22T09:45:16.696Z,1037.72
2019-02-22T09:46:27.563Z,1037.72
2019-02-22T09:47:37.262Z,1037.73
2019-02-22T09:48:47.050Z,1037.71
2019-02-22T09:49:57.028Z,1037.65
2019-02-22T09:51:06.468Z,1037.72
2019-02-22T09:52:16.163Z,1037.72
2019-02-22T09:53:25.862Z,1037.76
2019-02-22T09:54:35.093Z,1037.73
2019-02-22T09:55:45.044Z,1037.75
2019-02-22T09:56:54.748Z,1037.75
2019-02-22T09:58:07.187Z,1037.79
2019-02-22T09:59:16.884Z,1037.83
2019-02-22T10:00:26.326Z,1037.8
2019-02-22T10:01:35.770Z,1037.8
2019-02-22T10:02:45.713Z,1037.82
2019-02-22T10:03:55.153Z,1037.83
2019-02-22T10:05:05.103Z,1037.86
2019-02-22T10:06:14.819Z,1037.89
2019-02-22T10:07:24.512Z,1037.91
2019-02-22T10:08:33.974Z,1037.9
2019-02-22T10:09:43.678Z,1037.96
2019-02-22T10:10:53.614Z,1037.94
2019-02-22T10:12:03.309Z,1038
2019-02-22T10:13:12.751Z,1038.04
2019-02-22T10:14:22.450Z,1038.01
2019-02-22T10:15:33.581Z,1038.04
2019-02-22T10:16:43.323Z,1038.05
2019-02-22T10:17:53.260Z,1038.11
2019-02-22T10:19:02.958Z,1038.09
2019-02-22T10:20:12.411Z,1038.12
2019-02-22T10:21:21.609Z,1038.11
2019-02-22T10:22:31.054Z,1038.1
2019-02-22T10:23:40.509Z,1038.12
2019-02-22T10:24:50.439Z,1038.19
2019-02-22T10:26:00.381Z,1038.19
2019-02-22T10:27:12.074Z,1038.16
2019-02-22T10:28:22.210Z,1038.22
2019-02-22T10:29:32.210Z,1038.26
2019-02-22T10:30:41.662Z,1038.29
2019-02-22T10:31:51.359Z,1038.31
2019-02-22T10:33:00.810Z,1038.33
2019-02-22T10:34:10.745Z,1038.38
2019-02-22T10:35:20.698Z,1038.38
2019-02-22T10:36:30.151Z,1038.36
2019-02-22T10:37:50.359Z,1038.34
2019-02-22T10:38:59.817Z,1038.35
2019-02-22T10:40:11.333Z,1038.38
2019-02-22T10:41:21.282Z,1038.4
2019-02-22T10:42:31.231Z,1038.44
2019-02-22T10:43:40.419Z,1038.49
2019-02-22T10:44:50.131Z,1038.41
2019-02-22T10:45:59.570Z,1038.44
2019-02-22T10:47:09.519Z,1038.46
2019-02-22T10:48:18.957Z,1038.47
2019-02-22T10:49:28.646Z,1038.48
2019-02-22T10:50:38.596Z,1038.41
2019-02-22T10:51:48.336Z,1038.44
2019-02-22T10:53:01.969Z,1038.45
2019-02-22T10:54:12.038Z,1038.5
2019-02-22T10:55:22.054Z,1038.49
2019-02-22T10:56:31.523Z,1038.46
2019-02-22T10:57:42.239Z,1038.47
2019-02-22T10:58:52.392Z,1038.48
2019-02-22T11:00:01.836Z,1038.49
2019-02-22T11:01:11.294Z,1038.46
2019-02-22T11:02:20.984Z,1038.51
2019-02-22T11:03:31.921Z,1038.48
2019-02-22T11:04:41.886Z,1038.47
2019-02-22T11:05:51.331Z,1038.47
2019-02-22T11:07:01.313Z,1038.42
2019-02-22T11:08:11.014Z,1038.41
2019-02-22T11:09:20.966Z,1038.37
2019-02-22T11:10:30.156Z,1038.41
2019-02-22T11:11:39.611Z,1038.42
2019-02-22T11:12:49.308Z,1038.45
2019-02-22T11:13:59.008Z,1038.45
2019-02-22T11:15:08.202Z,1038.46
2019-02-22T11:16:18.228Z,1038.4
2019-02-22T11:17:28.222Z,1038.4
2019-02-22T11:18:39.354Z,1038.42
2019-02-22T11:19:49.535Z,1038.42
2019-02-22T11:20:59.475Z,1038.41
2019-02-22T11:22:08.914Z,1038.4
2019-02-22T11:23:18.886Z,1038.44
2019-02-22T11:24:28.829Z,1038.44
2019-02-22T11:25:38.521Z,1038.47
2019-02-22T11:26:48.530Z,1038.44
2019-02-22T11:27:58.210Z,1038.51
2019-02-22T11:29:07.895Z,1038.55
2019-02-22T11:30:17.653Z,1038.56
2019-02-22T11:31:27.606Z,1038.53
2019-02-22T11:32:37.076Z,1038.56
2019-02-22T11:33:47.031Z,1038.53
2019-02-22T11:34:56.746Z,1038.54
2019-02-22T11:36:06.438Z,1038.53
2019-02-22T11:37:15.895Z,1038.61
2019-02-22T11:38:25.845Z,1038.66
2019-02-22T11:39:35.283Z,1038.64
2019-02-22T11:40:44.970Z,1038.67
2019-02-22T11:41:54.925Z,1038.69
2019-02-22T11:43:04.862Z,1038.69
2019-02-22T11:44:14.548Z,1038.7
2019-02-22T11:45:24.482Z,1038.71
2019-02-22T11:46:34.173Z,1038.63
2019-02-22T11:47:44.108Z,1038.71
2019-02-22T11:48:53.312Z,1038.7
2019-02-22T11:50:02.764Z,1038.7
2019-02-22T11:51:12.335Z,1038.71
2019-02-22T11:52:21.806Z,1038.72
2019-02-22T11:53:31.501Z,1038.69
2019-02-22T11:54:41.448Z,1038.7
2019-02-22T11:55:51.008Z,1038.75
2019-02-22T11:57:01.003Z,1038.72
2019-02-22T11:58:10.949Z,1038.75
2019-02-22T11:59:20.640Z,1038.79
2019-02-22T12:00:30.599Z,1038.8
2019-02-22T12:01:40.294Z,1038.89
2019-02-22T12:02:50.232Z,1038.89
2019-02-22T12:04:16.270Z,1038.91
2019-02-22T12:05:25.962Z,1038.98
2019-02-22T12:06:35.912Z,1038.96
2019-02-22T12:07:45.624Z,1038.96
2019-02-22T12:08:55.555Z,1038.9
2019-02-22T12:10:05.581Z,1038.93
2019-02-22T12:11:15.526Z,1038.97
2019-02-22T12:12:25.492Z,1039
2019-02-22T12:13:34.934Z,1038.98
2019-02-22T12:14:51.290Z,1038.98
2019-02-22T12:16:02.107Z,1039.01
2019-02-22T12:17:11.566Z,1039.01
2019-02-22T12:18:21.508Z,1039.08
2019-02-22T12:19:30.962Z,1039.14
2019-02-22T12:20:40.905Z,1039.15
2019-02-22T12:21:51.084Z,1039.14
2019-02-22T12:23:01.036Z,1039.17
2019-02-22T12:24:10.733Z,1039.16
2019-02-22T12:25:20.927Z,1039.11
2019-02-22T12:26:31.833Z,1039.17
2019-02-22T12:27:42.010Z,1039.18
2019-02-22T12:28:51.966Z,1039.22
2019-02-22T12:30:01.918Z,1039.23
2019-02-22T12:31:11.882Z,1039.24
2019-02-22T12:32:21.328Z,1039.26
2019-02-22T12:33:31.027Z,1039.31
2019-02-22T12:34:40.495Z,1039.32
2019-02-22T12:35:50.193Z,1039.35
2019-02-22T12:36:59.737Z,1039.41
2019-02-22T12:38:09.693Z,1039.39
2019-02-22T12:39:19.635Z,1039.39
2019-02-22T12:40:29.245Z,1039.36
2019-02-22T12:41:39.187Z,1039.37
2019-02-22T12:42:48.895Z,1039.4
2019-02-22T12:43:59.980Z,1039.46
2019-02-22T12:45:09.969Z,1039.5
2019-02-22T12:46:19.923Z,1039.48
2019-02-22T12:47:29.693Z,1039.5
2019-02-22T12:48:39.391Z,1039.51
2019-02-22T12:49:49.097Z,1039.49
2019-02-22T12:50:59.097Z,1039.48
2019-02-22T12:52:09.074Z,1039.44
2019-02-22T12:53:18.775Z,1039.41
2019-02-22T12:54:28.480Z,1039.39
2019-02-22T12:55:37.932Z,1039.35
2019-02-22T12:56:57.251Z,1039.33
2019-02-22T12:58:07.540Z,1039.33
2019-02-22T12:59:17.003Z,1039.37
2019-02-22T13:00:26.443Z,1039.36
2019-02-22T13:01:36.146Z,1039.32
2019-02-22T13:02:45.849Z,1039.28
2019-02-22T13:04:06.449Z,1039.3
2019-02-22T13:05:16.202Z,1039.33
2019-02-22T13:06:26.167Z,1039.34
2019-02-22T13:07:35.610Z,1039.36
2019-02-22T13:08:45.094Z,1039.39
2019-02-22T13:09:55.044Z,1039.32
2019-02-22T13:11:04.996Z,1039.3
2019-02-22T13:12:17.135Z,1039.33
2019-02-22T13:13:26.750Z,1039.34
2019-02-22T13:14:36.698Z,1039.35
2019-02-22T13:15:46.640Z,1039.36
2019-02-22T13:16:56.591Z,1039.38
2019-02-22T13:18:06.615Z,1039.37
2019-02-22T13:19:16.314Z,1039.42
2019-02-22T13:20:26.051Z,1039.43
2019-02-22T13:21:35.625Z,1039.45
2019-02-22T13:22:45.096Z,1039.51
2019-02-22T13:23:57.242Z,1039.48
2019-02-22T13:25:07.384Z,1039.52
2019-02-22T13:26:17.984Z,1039.49
2019-02-22T13:27:26.830Z,1039.54
2019-02-22T13:28:36.555Z,1039.55
2019-02-22T13:29:46.013Z,1039.62
2019-02-22T13:30:55.600Z,1039.6
2019-02-22T13:32:05.564Z,1039.55
2019-02-22T13:33:15.344Z,1039.61
2019-02-22T13:34:25.046Z,1039.62
2019-02-22T13:35:34.753Z,1039.6
2019-02-22T13:36:44.764Z,1039.6
2019-02-22T13:37:54.806Z,1039.58
2019-02-22T13:39:04.758Z,1039.66
2019-02-22T13:40:14.231Z,1039.7
2019-02-22T13:41:23.947Z,1039.72
2019-02-22T13:42:33.642Z,1039.74
2019-02-22T13:43:43.659Z,1039.65
2019-02-22T13:44:53.369Z,1039.67
2019-02-22T13:46:03.062Z,1039.64
2019-02-22T13:47:12.507Z,1039.7
2019-02-22T13:48:22.466Z,1039.68
2019-02-22T13:49:32.154Z,1039.65
2019-02-22T13:50:42.174Z,1039.64
2019-02-22T13:51:51.730Z,1039.7
2019-02-22T13:53:01.442Z,1039.74
2019-02-22T13:54:11.141Z,1039.7
2019-02-22T13:55:20.926Z,1039.77
2019-02-22T13:56:30.648Z,1039.8
2019-02-22T13:57:40.356Z,1039.83
2019-02-22T13:58:50.059Z,1039.84
2019-02-22T13:59:59.762Z,1039.84
2019-02-22T14:01:09.703Z,1039.86
2019-02-22T14:02:19.640Z,1039.86
2019-02-22T14:03:29.330Z,1039.8
2019-02-22T14:04:39.271Z,1039.94
2019-02-22T14:05:49.232Z,1039.98
2019-02-22T14:06:59.180Z,1039.97
2019-02-22T14:08:08.724Z,1040.01
2019-02-22T14:09:18.213Z,1039.98
2019-02-22T14:10:27.657Z,1039.93